TAF and METAR

METAR for L9-Ff-1 Sea

EHMG 181255Z AUTO 08031KT 9999 NCD 10/07 Q1028 W///H///
Report created 18. apr 14:55
report generated by an automatic observation system. wind 31 knots from E (080°) visibility > 10km No cloud detected. Temperature 10° with dewpoint at 7° (Humidity 81.61%) Pressure 1028 hPa
No TAF available for L9-Ff-1 Sea
L9-Ff-1 Sea in Netherlands at 50m

Latest 5 airports